Amherst, Nebraska
Current Conditions -  °F | °C
As of 2:55 AM on Thursday 23 Oct 2014 (Local Time) from KEAR Reporting Station
Overcast Overcast  
Wind Chill: 50°   Ceiling: 200
Heat Index: 50°   Visibility: 0mi
Dew Point: 48°   Wind: 3mph
Humidity: 94%   Direction: 290°WNW
Pressure: 30.08"   Gusts: NA
Location:  40.77°N, 99.27°W
Report Text: KEAR 230755Z 29003KT M1/4SM OVC002 10/09 A3008 RMK AO1
Loading
Personal Weather Stations






























Interactive Weather Map
Tropical Storm Tracking
New forecast layout! Learn more

10-Day Weather Forecast

Advertisements
Track Severe Weather on mobile